createdAt,value
2023-04-18T00:01:19.099Z,10.70
2023-04-18T00:03:45.791Z,18.23
2023-04-18T00:06:13.764Z,15.43
2023-04-18T00:08:40.349Z,15.77
2023-04-18T00:11:07.012Z,16.20
2023-04-18T00:13:33.493Z,12.32
2023-04-18T00:15:59.889Z,14.35
2023-04-18T00:18:27.113Z,10.90
2023-04-18T00:20:54.424Z,15.73
2023-04-18T00:23:22.254Z,9.77
2023-04-18T00:25:48.768Z,8.98
2023-04-18T00:28:15.212Z,13.35
2023-04-18T00:30:41.753Z,7.97
2023-04-18T00:33:08.872Z,9.18
2023-04-18T00:35:35.377Z,8.00
2023-04-18T00:38:01.772Z,8.43
2023-04-18T00:40:28.219Z,8.15
2023-04-18T00:42:54.694Z,11.25
2023-04-18T00:45:21.126Z,8.45
2023-04-18T00:47:47.564Z,12.45
2023-04-18T00:50:15.011Z,10.60
2023-04-18T00:52:42.218Z,9.90
2023-04-18T00:55:09.337Z,10.30
2023-04-18T00:57:36.379Z,16.92
2023-04-18T01:00:10.348Z,9.43
2023-04-18T01:02:37.700Z,13.65
2023-04-18T01:05:04.461Z,12.93
2023-04-18T01:07:33.358Z,9.88
2023-04-18T01:10:00.524Z,11.98
2023-04-18T01:12:26.984Z,16.33
2023-04-18T01:14:53.607Z,13.65
2023-04-18T01:17:20.060Z,9.88
2023-04-18T01:19:46.823Z,12.55
2023-04-18T01:22:14.636Z,13.48
2023-04-18T01:24:42.090Z,10.18
2023-04-18T01:27:12.372Z,8.50
2023-04-18T01:29:39.121Z,11.90
2023-04-18T01:32:06.502Z,9.73
2023-04-18T01:34:32.964Z,13.02
2023-04-18T01:36:59.584Z,9.63
2023-04-18T01:39:26.012Z,9.90
2023-04-18T01:41:52.569Z,10.57
2023-04-18T01:44:19.031Z,16.20
2023-04-18T01:46:45.463Z,11.40
2023-04-18T01:49:11.870Z,9.32
2023-04-18T01:51:43.063Z,15.43
2023-04-18T01:54:09.486Z,10.75
2023-04-18T01:56:35.868Z,10.48
2023-04-18T01:59:02.384Z,13.75
2023-04-18T02:01:28.837Z,12.40
2023-04-18T02:03:55.491Z,10.98
2023-04-18T02:06:22.125Z,11.00
2023-04-18T02:08:48.694Z,9.20
2023-04-18T02:11:15.096Z,9.85
2023-04-18T02:13:41.733Z,10.38
2023-04-18T02:16:12.914Z,8.43
2023-04-18T02:18:40.125Z,10.82
2023-04-18T02:21:06.729Z,9.07
2023-04-18T02:23:33.153Z,9.38
2023-04-18T02:25:59.603Z,9.75
2023-04-18T02:28:26.032Z,9.80
2023-04-18T02:30:52.408Z,8.82
2023-04-18T02:33:18.864Z,11.68
2023-04-18T02:35:45.240Z,10.95
2023-04-18T02:38:11.788Z,8.48
2023-04-18T02:40:38.192Z,11.77
2023-04-18T02:43:04.643Z,9.40
2023-04-18T02:45:31.260Z,9.07
2023-04-18T02:47:57.706Z,11.52
2023-04-18T02:50:25.073Z,12.27
2023-04-18T02:52:51.643Z,10.98
2023-04-18T02:55:18.226Z,12.05
2023-04-18T02:57:44.654Z,8.35
2023-04-18T03:00:11.849Z,8.43
2023-04-18T03:02:38.348Z,11.93
2023-04-18T03:05:05.945Z,12.23
2023-04-18T03:07:32.557Z,11.27
2023-04-18T03:09:59.868Z,11.32
2023-04-18T03:12:26.344Z,11.60
2023-04-18T03:14:52.764Z,9.82
2023-04-18T03:17:19.385Z,9.05
2023-04-18T03:19:46.522Z,9.63
2023-04-18T03:22:14.149Z,10.18
2023-04-18T03:24:40.850Z,10.85
2023-04-18T03:27:07.319Z,10.10
2023-04-18T03:29:34.001Z,10.57
2023-04-18T03:32:00.429Z,10.20
2023-04-18T03:34:27.044Z,13.10
2023-04-18T03:36:54.095Z,12.55
2023-04-18T03:39:20.555Z,10.98
2023-04-18T03:41:46.982Z,10.43
2023-04-18T03:44:13.520Z,12.80
2023-04-18T03:46:40.706Z,10.73
2023-04-18T03:49:07.172Z,8.73
2023-04-18T03:51:42.070Z,12.02
2023-04-18T03:54:08.577Z,12.85
2023-04-18T03:56:35.689Z,17.48
2023-04-18T03:59:02.057Z,12.45
2023-04-18T04:01:28.517Z,12.27
2023-04-18T04:03:55.058Z,11.60
2023-04-18T04:06:21.719Z,14.05
2023-04-18T04:08:48.173Z,14.80
2023-04-18T04:11:14.560Z,14.07
2023-04-18T04:13:40.970Z,13.35
2023-04-18T04:16:07.867Z,12.13
2023-04-18T04:18:34.373Z,15.70
2023-04-18T04:21:00.985Z,15.70
2023-04-18T04:23:27.615Z,14.93
2023-04-18T04:25:54.914Z,11.05
2023-04-18T04:28:22.933Z,10.85
2023-04-18T04:30:50.815Z,10.43
2023-04-18T04:33:20.925Z,10.88
2023-04-18T04:35:47.939Z,17.83
2023-04-18T04:38:15.284Z,17.45
2023-04-18T04:40:42.368Z,19.58
2023-04-18T04:43:12.490Z,19.45
2023-04-18T04:45:42.020Z,17.73
2023-04-18T04:48:09.492Z,16.77
2023-04-18T04:50:37.325Z,18.45
2023-04-18T04:53:07.344Z,19.50
2023-04-18T04:55:34.493Z,18.92
2023-04-18T04:58:01.016Z,20.13
2023-04-18T05:00:28.798Z,17.85
2023-04-18T05:02:56.255Z,16.70
2023-04-18T05:05:23.303Z,21.48
2023-04-18T05:07:49.733Z,17.13
2023-04-18T05:10:16.221Z,20.65
2023-04-18T05:12:42.749Z,20.20
2023-04-18T05:15:09.551Z,18.63
2023-04-18T05:17:36.014Z,19.10
2023-04-18T05:20:02.420Z,18.67
2023-04-18T05:22:28.824Z,16.40
2023-04-18T05:24:55.288Z,22.52
2023-04-18T05:27:21.907Z,20.20
2023-04-18T05:29:50.147Z,21.38
2023-04-18T05:32:16.705Z,19.40
2023-04-18T05:34:43.270Z,20.52
2023-04-18T05:37:09.830Z,18.60
2023-04-18T05:39:36.427Z,18.75
2023-04-18T05:42:03.273Z,19.88
2023-04-18T05:44:29.958Z,18.23
2023-04-18T05:46:56.365Z,21.42
2023-04-18T05:49:25.296Z,19.45
2023-04-18T05:51:52.763Z,22.52
2023-04-18T05:54:21.495Z,23.05
2023-04-18T05:56:48.235Z,20.23
2023-04-18T05:59:14.633Z,23.95
2023-04-18T06:01:41.038Z,21.95
2023-04-18T06:04:08.584Z,20.95
2023-04-18T06:06:35.896Z,22.77
2023-04-18T06:09:02.377Z,22.27
2023-04-18T06:11:28.872Z,22.80
2023-04-18T06:13:56.042Z,22.17
2023-04-18T06:16:22.596Z,22.40
2023-04-18T06:18:49.026Z,21.52
2023-04-18T06:21:15.581Z,22.70
2023-04-18T06:23:41.993Z,21.67
2023-04-18T06:26:09.193Z,24.55
2023-04-18T06:28:35.853Z,25.20
2023-04-18T06:31:02.578Z,20.92
2023-04-18T06:33:29.042Z,22.00
2023-04-18T06:35:55.752Z,20.40
2023-04-18T06:38:22.206Z,22.83
2023-04-18T06:40:48.612Z,24.77
2023-04-18T06:43:15.045Z,20.10
2023-04-18T06:45:41.633Z,19.98
2023-04-18T06:48:09.127Z,23.52
2023-04-18T06:50:35.780Z,16.45
2023-04-18T06:53:02.264Z,17.83
2023-04-18T06:55:28.745Z,20.00
2023-04-18T06:57:55.402Z,17.13
2023-04-18T07:00:22.158Z,18.42
2023-04-18T07:02:48.903Z,17.17
2023-04-18T07:05:15.513Z,16.83
2023-04-18T07:07:41.909Z,22.60
2023-04-18T07:10:09.788Z,17.33
2023-04-18T07:12:36.336Z,16.20
2023-04-18T07:15:03.795Z,14.88
2023-04-18T07:17:30.394Z,21.15
2023-04-18T07:19:56.836Z,12.73
2023-04-18T07:22:23.257Z,13.80
2023-04-18T07:24:49.674Z,14.88
2023-04-18T07:27:16.150Z,17.25
2023-04-18T07:29:42.572Z,13.05
2023-04-18T07:32:10.853Z,15.18
2023-04-18T07:34:37.492Z,16.13
2023-04-18T07:37:04.051Z,14.70
2023-04-18T07:39:35.713Z,12.88
2023-04-18T07:42:04.088Z,13.57
2023-04-18T07:44:30.646Z,13.18
2023-04-18T07:46:57.137Z,15.68
2023-04-18T07:49:23.544Z,10.02
2023-04-18T07:51:49.960Z,13.40
2023-04-18T07:54:16.830Z,10.98
2023-04-18T07:56:43.357Z,11.95
2023-04-18T07:59:09.819Z,9.80
2023-04-18T08:01:36.225Z,10.98
2023-04-18T08:04:02.771Z,8.25
2023-04-18T08:06:29.425Z,8.70
2023-04-18T08:08:55.893Z,9.05
2023-04-18T08:11:22.302Z,7.82
2023-04-18T08:13:48.726Z,10.43
2023-04-18T08:16:17.366Z,8.90
2023-04-18T08:18:44.174Z,7.60
2023-04-18T08:21:10.694Z,7.38
2023-04-18T08:23:37.132Z,10.90
2023-04-18T08:26:03.552Z,8.13
2023-04-18T08:28:30.041Z,8.73
2023-04-18T08:30:56.659Z,9.50
2023-04-18T08:33:24.029Z,9.38
2023-04-18T08:35:53.206Z,8.85
2023-04-18T08:38:19.732Z,9.05
2023-04-18T08:40:46.489Z,9.27
2023-04-18T08:43:14.852Z,9.27
2023-04-18T08:45:44.985Z,8.43
2023-04-18T08:48:13.799Z,8.55
2023-04-18T08:50:41.494Z,8.35
2023-04-18T08:53:08.477Z,8.48
2023-04-18T08:55:35.615Z,11.05
2023-04-18T08:58:03.202Z,14.40
2023-04-18T09:00:30.482Z,10.68
2023-04-18T09:02:57.604Z,10.77
2023-04-18T09:05:26.893Z,9.65
2023-04-18T09:07:54.648Z,12.77
2023-04-18T09:10:33.363Z,12.18
2023-04-18T09:13:03.284Z,11.55
2023-04-18T09:15:30.439Z,10.38
2023-04-18T09:18:02.752Z,11.18
2023-04-18T09:20:35.772Z,13.27
2023-04-18T09:23:04.271Z,11.10
2023-04-18T09:25:51.288Z,11.95
2023-04-18T09:28:29.670Z,10.02
2023-04-18T09:30:58.497Z,10.07
2023-04-18T09:33:32.957Z,11.55
2023-04-18T09:36:23.782Z,11.90
2023-04-18T09:38:55.371Z,13.32
2023-04-18T09:41:23.137Z,9.07
2023-04-18T09:43:49.614Z,12.38
2023-04-18T09:46:17.657Z,10.32
2023-04-18T09:48:44.276Z,12.57
2023-04-18T09:51:15.711Z,11.95
2023-04-18T09:53:47.648Z,13.70
2023-04-18T09:56:27.476Z,15.32
2023-04-18T09:59:03.555Z,13.93
2023-04-18T10:01:30.784Z,13.70
2023-04-18T10:03:57.827Z,11.68
2023-04-18T10:06:27.294Z,12.48
2023-04-18T10:08:55.030Z,14.73
2023-04-18T10:11:23.596Z,13.15
2023-04-18T10:13:53.560Z,13.43
2023-04-18T10:16:20.720Z,12.18
2023-04-18T10:18:49.654Z,12.43
2023-04-18T10:21:16.430Z,14.10
2023-04-18T10:23:43.055Z,11.80
2023-04-18T10:26:11.115Z,14.43
2023-04-18T10:28:57.233Z,12.43
2023-04-18T10:31:25.961Z,14.35
2023-04-18T10:34:05.700Z,16.17
2023-04-18T10:52:43.737Z,15.45
2023-04-18T10:55:15.763Z,9.93
2023-04-18T10:57:44.913Z,11.93
2023-04-18T11:00:13.889Z,15.32
2023-04-18T11:02:47.610Z,14.57
2023-04-18T11:05:19.420Z,15.40
2023-04-18T11:07:46.576Z,15.90
2023-04-18T11:10:16.143Z,17.48
2023-04-18T11:12:42.785Z,16.33
2023-04-18T11:15:11.676Z,15.52
2023-04-18T11:17:40.119Z,14.90
2023-04-18T11:20:09.237Z,15.82
2023-04-18T11:22:49.796Z,14.85
2023-04-18T11:25:17.367Z,19.38
2023-04-18T11:27:45.223Z,16.55
2023-04-18T11:30:13.106Z,13.45
2023-04-18T11:32:41.417Z,10.48
2023-04-18T11:35:12.936Z,16.02
2023-04-18T11:37:40.688Z,13.50
2023-04-18T11:40:10.150Z,12.82
2023-04-18T11:42:39.017Z,15.88
2023-04-18T11:45:13.050Z,11.38
2023-04-18T11:47:41.954Z,12.30
2023-04-18T11:50:10.996Z,15.80
2023-04-18T11:52:39.018Z,16.10
2023-04-18T11:55:18.415Z,12.52
2023-04-18T11:57:57.794Z,17.77
2023-04-18T12:00:39.508Z,17.55
2023-04-18T12:03:11.807Z,14.82
2023-04-18T12:05:40.091Z,11.98
2023-04-18T12:08:11.540Z,14.20
2023-04-18T12:10:45.262Z,13.88
2023-04-18T12:13:11.822Z,14.23
2023-04-18T12:15:40.754Z,17.40
2023-04-18T12:18:10.078Z,16.05
2023-04-18T12:20:52.314Z,13.38
2023-04-18T12:23:38.309Z,21.73
2023-04-18T12:26:07.225Z,15.75
2023-04-18T12:28:35.546Z,13.13
2023-04-18T12:31:05.346Z,15.57
2023-04-18T12:33:31.842Z,14.25
2023-04-18T12:35:58.899Z,14.45
2023-04-18T12:38:25.636Z,14.88
2023-04-18T12:40:52.467Z,13.93
2023-04-18T12:43:19.687Z,14.55
2023-04-18T12:45:47.334Z,12.13
2023-04-18T12:48:13.860Z,15.23
2023-04-18T12:50:40.437Z,13.30
2023-04-18T12:53:06.915Z,13.82
2023-04-18T12:55:33.495Z,14.43
2023-04-18T12:57:59.968Z,11.60
2023-04-18T13:00:29.246Z,12.90
2023-04-18T13:02:56.353Z,14.10
2023-04-18T13:05:27.318Z,13.57
2023-04-18T13:08:08.498Z,16.50
2023-04-18T13:10:41.591Z,16.98
2023-04-18T13:13:08.003Z,14.40
2023-04-18T13:15:34.451Z,14.88
2023-04-18T13:18:05.086Z,13.15
2023-04-18T13:20:32.124Z,13.57
2023-04-18T13:22:58.562Z,15.70
2023-04-18T13:25:25.936Z,13.63
2023-04-18T13:27:52.435Z,15.40
2023-04-18T13:30:19.109Z,14.60
2023-04-18T13:32:46.240Z,13.30
2023-04-18T13:35:12.792Z,15.38
2023-04-18T13:37:39.553Z,16.52
2023-04-18T13:40:06.925Z,14.23
2023-04-18T13:42:34.032Z,11.65
2023-04-18T13:45:00.477Z,14.07
2023-04-18T13:47:27.220Z,15.30
2023-04-18T13:49:53.803Z,16.25
2023-04-18T13:52:20.375Z,15.48
2023-04-18T13:54:47.056Z,16.77
2023-04-18T13:57:14.620Z,15.30
2023-04-18T13:59:41.344Z,13.60
2023-04-18T14:02:08.870Z,18.60
2023-04-18T14:04:36.201Z,16.17
2023-04-18T14:07:03.743Z,13.63
2023-04-18T14:09:30.279Z,14.82
2023-04-18T14:11:58.205Z,17.77
2023-04-18T14:14:24.708Z,15.57
2023-04-18T14:16:51.224Z,17.55
2023-04-18T14:19:17.895Z,20.85
2023-04-18T14:21:44.350Z,16.95
2023-04-18T14:24:11.976Z,16.63
2023-04-18T14:26:38.401Z,15.38
2023-04-18T14:29:05.105Z,17.15
2023-04-18T14:31:31.587Z,15.30
2023-04-18T14:33:58.070Z,13.43
2023-04-18T14:36:24.553Z,15.90
2023-04-18T14:38:50.985Z,17.20
2023-04-18T14:41:17.446Z,15.82
2023-04-18T14:43:43.925Z,17.17
2023-04-18T14:46:16.445Z,15.18
2023-04-18T14:48:46.267Z,16.70
2023-04-18T14:51:12.939Z,16.48
2023-04-18T14:53:39.347Z,16.60
2023-04-18T14:56:06.057Z,15.23
2023-04-18T14:58:32.471Z,17.10
2023-04-18T15:00:59.012Z,15.68
2023-04-18T15:03:25.575Z,15.30
2023-04-18T15:05:53.136Z,13.13
2023-04-18T15:08:19.662Z,15.50
2023-04-18T15:10:47.512Z,16.17
2023-04-18T15:13:13.963Z,13.05
2023-04-18T15:15:40.531Z,13.55
2023-04-18T15:18:08.309Z,12.27
2023-04-18T15:20:36.988Z,13.00
2023-04-18T15:23:03.679Z,14.68
2023-04-18T15:25:30.990Z,13.73
2023-04-18T15:27:58.376Z,14.13
2023-04-18T15:30:25.426Z,15.63
2023-04-18T15:32:52.163Z,14.70
2023-04-18T15:35:18.874Z,12.05
2023-04-18T15:37:45.375Z,11.35
2023-04-18T15:40:16.081Z,14.90
2023-04-18T15:42:43.605Z,14.48
2023-04-18T15:45:10.933Z,13.15
2023-04-18T15:47:38.732Z,13.60
2023-04-18T15:50:06.139Z,14.00
2023-04-18T15:52:32.653Z,18.17
2023-04-18T15:54:59.223Z,15.43
2023-04-18T15:57:25.688Z,14.85
2023-04-18T15:59:52.214Z,11.98
2023-04-18T16:02:18.675Z,12.25
2023-04-18T16:04:45.481Z,12.20
2023-04-18T16:07:12.122Z,12.90
2023-04-18T16:09:38.546Z,12.35
2023-04-18T16:12:05.805Z,13.73
2023-04-18T16:14:33.398Z,14.38
2023-04-18T16:16:59.933Z,10.77
2023-04-18T16:19:26.445Z,12.05
2023-04-18T16:21:52.925Z,14.95
2023-04-18T16:24:19.525Z,10.60
2023-04-18T16:26:46.012Z,9.13
2023-04-18T16:29:12.404Z,9.95
2023-04-18T16:31:38.962Z,12.20
2023-04-18T16:34:05.388Z,11.20
2023-04-18T16:36:34.412Z,10.32
2023-04-18T16:39:00.870Z,13.35
2023-04-18T16:41:27.617Z,9.20
2023-04-18T16:43:54.045Z,13.63
2023-04-18T16:46:20.626Z,8.95
2023-04-18T16:48:47.189Z,13.60
2023-04-18T16:51:16.688Z,14.25
2023-04-18T16:53:44.488Z,12.88
2023-04-18T16:56:10.952Z,11.18
2023-04-18T16:58:37.340Z,11.80
2023-04-18T17:01:03.824Z,14.13
2023-04-18T17:03:30.624Z,15.20
2023-04-18T17:05:57.311Z,15.05
2023-04-18T17:08:25.745Z,16.15
2023-04-18T17:10:52.868Z,14.25
2023-04-18T17:13:19.566Z,15.15
2023-04-18T17:15:46.227Z,14.57
2023-04-18T17:18:12.772Z,16.92
2023-04-18T17:20:39.322Z,16.55
2023-04-18T17:23:05.932Z,14.00
2023-04-18T17:25:32.389Z,15.40
2023-04-18T17:28:02.024Z,17.92
2023-04-18T17:30:29.044Z,14.95
2023-04-18T17:32:55.975Z,16.10
2023-04-18T17:35:22.728Z,15.57
2023-04-18T17:37:50.076Z,16.52
2023-04-18T17:40:16.674Z,18.38
2023-04-18T17:42:43.244Z,16.02
2023-04-18T17:45:10.054Z,17.30
2023-04-18T17:47:36.812Z,15.20
2023-04-18T17:50:07.051Z,14.90
2023-04-18T17:52:33.455Z,16.17
2023-04-18T17:55:01.534Z,15.75
2023-04-18T17:57:30.356Z,18.92
2023-04-18T17:59:56.925Z,18.65
2023-04-18T18:02:23.615Z,18.10
2023-04-18T18:04:50.365Z,18.08
2023-04-18T18:07:16.935Z,14.50
2023-04-18T18:09:43.430Z,17.50
2023-04-18T18:12:09.995Z,16.27
2023-04-18T18:14:36.533Z,17.30
2023-04-18T18:17:05.527Z,18.38
2023-04-18T18:19:32.091Z,19.17
2023-04-18T18:21:58.541Z,20.05
2023-04-18T18:24:26.763Z,16.30
2023-04-18T18:26:53.335Z,20.63
2023-04-18T18:29:19.891Z,19.02
2023-04-18T18:31:46.415Z,14.05
2023-04-18T18:34:12.916Z,15.73
2023-04-18T18:36:40.119Z,16.20
2023-04-18T18:39:06.867Z,17.10
2023-04-18T18:41:33.465Z,20.23
2023-04-18T18:44:00.196Z,19.60
2023-04-18T18:46:27.659Z,15.65
2023-04-18T18:48:54.140Z,19.33
2023-04-18T18:51:20.560Z,18.52
2023-04-18T18:53:47.034Z,22.52
2023-04-18T18:56:13.508Z,22.00
2023-04-18T18:58:40.405Z,18.55
2023-04-18T19:01:07.209Z,19.55
2023-04-18T19:03:34.678Z,17.35
2023-04-18T19:06:03.788Z,19.60
2023-04-18T19:08:30.829Z,16.20
2023-04-18T19:10:58.148Z,19.92
2023-04-18T19:13:25.085Z,20.83
2023-04-18T19:15:52.063Z,21.48
2023-04-18T19:18:21.802Z,19.90
2023-04-18T19:20:49.936Z,20.10
2023-04-18T19:25:59.815Z,19.65
2023-04-18T19:28:26.555Z,17.50
2023-04-18T19:30:53.106Z,19.58
2023-04-18T19:33:20.467Z,21.83
2023-04-18T19:35:46.869Z,19.98
2023-04-18T19:38:13.286Z,21.27
2023-04-18T19:40:39.691Z,20.98
2023-04-18T19:43:06.123Z,18.50
2023-04-18T19:45:32.690Z,19.20
2023-04-18T19:47:59.298Z,19.55
2023-04-18T19:50:25.874Z,24.02
2023-04-18T19:52:52.272Z,18.60
2023-04-18T19:55:18.680Z,21.83
2023-04-18T19:57:45.230Z,20.63
2023-04-18T20:00:13.456Z,21.08
2023-04-18T20:02:41.018Z,21.45
2023-04-18T20:05:09.186Z,21.77
2023-04-18T20:07:35.977Z,20.45
2023-04-18T20:10:02.443Z,22.75
2023-04-18T20:12:28.911Z,25.33
2023-04-18T20:14:55.882Z,19.58
2023-04-18T20:17:22.491Z,20.60
2023-04-18T20:19:49.695Z,18.92
2023-04-18T20:22:16.888Z,18.50
2023-04-18T20:24:45.002Z,19.33
2023-04-18T20:27:12.243Z,22.98
2023-04-18T20:29:38.763Z,18.23
2023-04-18T20:32:05.741Z,22.02
2023-04-18T20:34:32.529Z,20.75
2023-04-18T20:36:59.976Z,20.88
2023-04-18T20:39:26.849Z,19.98
2023-04-18T20:42:14.137Z,17.38
2023-04-18T20:44:42.927Z,19.10
2023-04-18T20:47:09.331Z,19.33
2023-04-18T20:49:36.070Z,19.67
2023-04-18T20:52:02.466Z,23.75
2023-04-18T20:54:28.861Z,17.52
2023-04-18T20:56:55.350Z,18.38
2023-04-18T20:59:25.373Z,19.90
2023-04-18T21:01:51.790Z,20.45
2023-04-18T21:04:18.466Z,18.00
2023-04-18T21:06:45.498Z,18.60
2023-04-18T21:09:11.914Z,20.45
2023-04-18T21:11:38.349Z,19.48
2023-04-18T21:14:06.606Z,18.30
2023-04-18T21:16:33.419Z,17.35
2023-04-18T21:19:00.019Z,19.92
2023-04-18T21:21:27.182Z,19.55
2023-04-18T21:23:53.579Z,19.58
2023-04-18T21:26:20.131Z,18.30
2023-04-18T21:29:00.393Z,19.35
2023-04-18T21:31:29.450Z,16.92
2023-04-18T21:33:57.889Z,16.10
2023-04-18T21:36:26.851Z,18.50
2023-04-18T21:38:58.011Z,18.65
2023-04-18T21:41:25.454Z,19.50
2023-04-18T21:43:52.193Z,18.60
2023-04-18T21:46:19.446Z,19.65
2023-04-18T21:48:46.992Z,18.85
2023-04-18T21:51:15.727Z,16.88
2023-04-18T21:53:42.703Z,17.30
2023-04-18T21:56:09.721Z,18.83
2023-04-18T21:58:36.366Z,16.90
2023-04-18T22:01:03.236Z,18.67
2023-04-18T22:03:30.059Z,16.75
2023-04-18T22:05:57.478Z,17.35
2023-04-18T22:08:25.712Z,19.67
2023-04-18T22:10:56.387Z,17.73
2023-04-18T22:15:51.342Z,19.25
2023-04-18T22:18:18.811Z,20.02
2023-04-18T22:20:46.822Z,18.35
2023-04-18T22:23:13.732Z,19.75
2023-04-18T22:25:40.530Z,19.20
2023-04-18T22:28:07.124Z,19.65
2023-04-18T22:30:33.688Z,20.55
2023-04-18T22:33:00.307Z,17.10
2023-04-18T22:35:27.101Z,17.33
2023-04-18T22:37:53.547Z,20.08
2023-04-18T22:40:20.067Z,17.02
2023-04-18T22:42:46.462Z,18.33
2023-04-18T22:45:13.627Z,18.65
2023-04-18T22:47:40.350Z,20.40
2023-04-18T22:50:07.818Z,18.10
2023-04-18T22:55:17.040Z,22.25
2023-04-18T22:57:43.721Z,18.45
2023-04-18T23:00:11.718Z,20.33
2023-04-18T23:02:38.397Z,21.83
2023-04-18T23:05:07.310Z,19.73
2023-04-18T23:07:41.333Z,20.33
2023-04-18T23:12:49.967Z,20.00
2023-04-18T23:15:16.372Z,24.38
2023-04-18T23:17:42.917Z,18.40
2023-04-18T23:20:10.754Z,19.20
2023-04-18T23:22:38.682Z,22.20
2023-04-18T23:25:05.552Z,21.52
2023-04-18T23:27:32.067Z,19.88
2023-04-18T23:29:58.630Z,21.83
2023-04-18T23:32:25.165Z,20.80
2023-04-18T23:34:51.609Z,20.95
2023-04-18T23:37:17.987Z,20.48
2023-04-18T23:39:44.371Z,17.85
2023-04-18T23:42:10.836Z,20.55
2023-04-18T23:44:37.274Z,22.48
2023-04-18T23:47:03.774Z,23.88
2023-04-18T23:49:30.207Z,22.00
2023-04-18T23:51:56.626Z,20.10
2023-04-18T23:54:23.047Z,18.25
2023-04-18T23:56:49.707Z,20.52
2023-04-18T23:59:16.228Z,19.77
